createdAt,value
2022-08-26T00:01:45.338Z,9.90
2022-08-26T00:06:48.509Z,9.60
2022-08-26T00:11:52.239Z,6.70
2022-08-26T00:16:55.175Z,7.20
2022-08-26T00:21:58.201Z,6.20
2022-08-26T00:27:00.957Z,5.10
2022-08-26T00:32:04.177Z,7.60
2022-08-26T00:37:08.725Z,7.00
2022-08-26T00:42:13.100Z,8.30
2022-08-26T00:47:34.113Z,6.70
2022-08-26T00:52:37.748Z,6.60
2022-08-26T00:57:42.582Z,7.80
2022-08-26T01:02:47.686Z,10.40
2022-08-26T01:07:50.772Z,5.70
2022-08-26T01:12:58.219Z,8.90
2022-08-26T01:18:04.070Z,9.30
2022-08-26T01:28:21.825Z,7.60
2022-08-26T01:33:31.799Z,5.70
2022-08-26T01:38:45.244Z,5.80
2022-08-26T01:43:53.339Z,5.50
2022-08-26T01:49:00.263Z,8.20
2022-08-26T01:54:06.001Z,5.70
2022-08-26T01:59:12.539Z,5.00
2022-08-26T02:04:39.981Z,3.90
2022-08-26T02:09:51.152Z,6.20
2022-08-26T02:14:58.119Z,4.30
2022-08-26T02:20:02.434Z,4.70
2022-08-26T02:25:12.111Z,5.30
2022-08-26T02:30:25.442Z,5.20
2022-08-26T02:35:29.184Z,6.20
2022-08-26T02:40:39.313Z,7.10
2022-08-26T02:45:43.047Z,4.90
2022-08-26T02:50:46.356Z,7.00
2022-08-26T02:55:49.589Z,9.60
2022-08-26T03:00:53.786Z,7.60
2022-08-26T03:05:57.718Z,6.40
2022-08-26T03:11:01.665Z,6.20
2022-08-26T03:16:05.043Z,4.90
2022-08-26T03:21:14.570Z,5.50
2022-08-26T03:26:17.478Z,5.50
2022-08-26T03:31:20.200Z,5.60
2022-08-26T03:36:27.559Z,5.10
2022-08-26T03:41:32.722Z,7.00
2022-08-26T03:46:35.632Z,6.90
2022-08-26T03:51:39.215Z,5.90
2022-08-26T03:56:41.935Z,10.40
2022-08-26T04:01:44.690Z,7.00
2022-08-26T04:06:47.619Z,7.10
2022-08-26T04:11:50.896Z,7.80
2022-08-26T04:16:56.706Z,6.10
2022-08-26T04:22:00.267Z,9.20
2022-08-26T04:27:03.869Z,6.20
2022-08-26T04:32:08.820Z,7.20
2022-08-26T04:37:12.113Z,7.30
2022-08-26T04:42:19.886Z,13.20
2022-08-26T04:47:32.212Z,10.20
2022-08-26T04:52:36.894Z,14.60
2022-08-26T04:57:40.465Z,12.10
2022-08-26T05:02:43.299Z,14.30
2022-08-26T05:07:46.012Z,12.20
2022-08-26T05:12:49.090Z,18.80
2022-08-26T05:17:52.053Z,14.90
2022-08-26T05:22:54.726Z,15.10
2022-08-26T05:27:58.126Z,12.90
2022-08-26T05:33:02.015Z,11.80
2022-08-26T05:38:12.390Z,16.10
2022-08-26T05:43:16.849Z,15.40
2022-08-26T05:48:24.356Z,19.50
2022-08-26T05:53:27.372Z,15.30
2022-08-26T05:58:30.063Z,11.30
2022-08-26T06:03:37.433Z,14.10
2022-08-26T06:08:41.005Z,17.80
2022-08-26T06:13:45.042Z,13.50
2022-08-26T06:18:50.993Z,17.70
2022-08-26T06:29:24.041Z,12.50
2022-08-26T06:34:31.092Z,14.40
2022-08-26T06:39:34.599Z,19.40
2022-08-26T06:44:38.046Z,16.00
2022-08-26T06:49:44.223Z,17.50
2022-08-26T06:54:47.285Z,14.90
2022-08-26T06:59:51.237Z,13.20
2022-08-26T07:04:54.436Z,13.70
2022-08-26T07:10:00.475Z,14.50
2022-08-26T07:15:04.922Z,12.30
2022-08-26T07:20:09.107Z,14.00
2022-08-26T07:25:12.329Z,14.00
2022-08-26T07:30:15.224Z,9.40
2022-08-26T07:35:18.459Z,11.80
2022-08-26T07:40:22.408Z,10.50
2022-08-26T07:45:25.394Z,11.40
2022-08-26T07:50:49.294Z,11.90
2022-08-26T07:55:51.556Z,12.40
2022-08-26T08:00:55.195Z,14.90
2022-08-26T08:05:57.973Z,11.50
2022-08-26T08:11:01.460Z,10.20
2022-08-26T08:16:05.738Z,14.30
2022-08-26T08:21:21.151Z,13.40
2022-08-26T08:26:26.642Z,17.10
2022-08-26T08:31:55.766Z,9.90
2022-08-26T08:36:57.198Z,9.10
2022-08-26T08:42:06.567Z,9.80
2022-08-26T08:47:35.626Z,11.40
2022-08-26T08:52:41.474Z,9.00
2022-08-26T08:58:02.271Z,9.40
2022-08-26T09:03:37.746Z,11.00
2022-08-26T09:08:41.718Z,10.40
2022-08-26T09:13:54.166Z,9.30
2022-08-26T09:19:35.022Z,8.50
2022-08-26T09:24:41.884Z,11.00
2022-08-26T09:29:51.001Z,10.90
2022-08-26T09:35:00.197Z,9.10
2022-08-26T09:40:34.554Z,10.70
2022-08-26T09:45:41.450Z,9.00
2022-08-26T09:50:54.812Z,8.40
2022-08-26T09:56:22.156Z,11.40
2022-08-26T10:01:34.969Z,8.10
2022-08-26T10:06:43.738Z,7.30
2022-08-26T10:11:51.979Z,8.80
2022-08-26T10:17:02.508Z,11.50
2022-08-26T10:22:16.805Z,11.30
2022-08-26T10:27:53.403Z,7.70
2022-08-26T10:33:03.889Z,10.80
2022-08-26T10:38:15.196Z,6.50
2022-08-26T10:43:26.400Z,7.90
2022-08-26T10:49:00.057Z,10.30
2022-08-26T10:54:29.103Z,9.00
2022-08-26T10:59:56.197Z,12.20
2022-08-26T11:05:16.971Z,7.50
2022-08-26T11:10:19.837Z,6.90
2022-08-26T11:15:26.508Z,8.00
2022-08-26T11:20:42.329Z,9.60
2022-08-26T11:26:08.725Z,7.10
2022-08-26T11:31:34.552Z,7.30
2022-08-26T11:36:40.750Z,8.00
2022-08-26T11:41:46.750Z,8.10
2022-08-26T11:47:00.997Z,9.60
2022-08-26T11:52:18.119Z,7.10
2022-08-26T11:57:24.160Z,5.90
2022-08-26T12:02:27.999Z,9.30
2022-08-26T12:07:30.838Z,7.20
2022-08-26T12:12:37.872Z,8.30
2022-08-26T12:17:41.968Z,7.90
2022-08-26T12:22:48.148Z,5.70
2022-08-26T12:27:54.081Z,6.50
2022-08-26T12:33:14.174Z,9.00
2022-08-26T12:38:28.123Z,6.80
2022-08-26T12:43:40.633Z,8.20
2022-08-26T12:48:48.968Z,6.10
2022-08-26T12:53:52.563Z,8.20
2022-08-26T12:59:10.242Z,5.60
2022-08-26T13:04:35.361Z,9.60
2022-08-26T13:09:38.674Z,7.00
2022-08-26T13:14:41.578Z,7.30
2022-08-26T13:19:44.429Z,7.10
2022-08-26T13:24:47.487Z,5.20
2022-08-26T13:29:51.417Z,7.50
2022-08-26T13:34:55.752Z,8.30
2022-08-26T13:39:59.305Z,8.50
2022-08-26T13:45:02.893Z,8.80
2022-08-26T13:50:06.454Z,6.80
2022-08-26T13:55:12.095Z,7.70
2022-08-26T14:00:17.477Z,9.00
2022-08-26T14:05:20.343Z,7.60
2022-08-26T14:10:24.285Z,8.90
2022-08-26T14:15:28.023Z,7.90
2022-08-26T14:20:33.666Z,4.50
2022-08-26T14:30:42.441Z,7.80
2022-08-26T14:35:49.006Z,7.90
2022-08-26T14:40:52.958Z,5.20
2022-08-26T14:45:56.067Z,7.30
2022-08-26T14:50:59.073Z,8.20
2022-08-26T14:56:02.491Z,7.60
2022-08-26T15:01:07.952Z,6.00
2022-08-26T15:06:11.675Z,5.40
2022-08-26T15:11:14.783Z,5.90
2022-08-26T15:16:17.724Z,5.70
2022-08-26T15:21:22.244Z,5.80
2022-08-26T15:26:25.235Z,8.90
2022-08-26T15:31:31.465Z,7.70
2022-08-26T15:36:37.290Z,6.50
2022-08-26T15:41:41.217Z,4.30
2022-08-26T15:46:44.710Z,6.50
2022-08-26T15:51:50.712Z,6.20
2022-08-26T15:56:53.942Z,6.80
2022-08-26T16:01:58.231Z,5.50
2022-08-26T16:07:01.470Z,5.90
2022-08-26T16:12:04.601Z,7.60
2022-08-26T16:22:10.391Z,13.00
2022-08-26T16:27:13.242Z,9.40
2022-08-26T16:32:16.399Z,7.60
2022-08-26T16:37:19.303Z,6.20
2022-08-26T16:42:22.309Z,6.50
2022-08-26T16:47:25.728Z,8.80
2022-08-26T16:52:30.184Z,5.90
2022-08-26T16:57:39.647Z,5.70
2022-08-26T17:02:42.555Z,6.10
2022-08-26T17:07:45.532Z,8.60
2022-08-26T17:12:48.943Z,7.40
2022-08-26T17:17:52.262Z,10.60
2022-08-26T17:22:55.623Z,9.60
2022-08-26T17:27:59.368Z,7.90
2022-08-26T17:33:02.379Z,8.90
2022-08-26T17:38:14.095Z,10.60
2022-08-26T17:43:17.820Z,9.60
2022-08-26T17:48:20.496Z,11.30
2022-08-26T17:53:24.994Z,12.30
2022-08-26T17:58:27.693Z,10.40
2022-08-26T18:03:32.687Z,10.00
2022-08-26T18:08:35.690Z,9.00
2022-08-26T18:13:39.389Z,7.70
2022-08-26T18:18:53.531Z,10.70
2022-08-26T18:23:57.473Z,9.10
2022-08-26T18:29:00.414Z,9.20
2022-08-26T18:34:03.468Z,10.60
2022-08-26T18:39:08.430Z,8.90
2022-08-26T18:44:13.823Z,12.90
2022-08-26T18:49:19.033Z,19.40
2022-08-26T18:54:22.188Z,12.30
2022-08-26T18:59:29.712Z,15.80
2022-08-26T19:04:33.313Z,13.70
2022-08-26T19:09:36.512Z,13.40
2022-08-26T19:14:39.269Z,13.20
2022-08-26T19:19:42.206Z,12.20
2022-08-26T19:24:44.917Z,14.30
2022-08-26T19:29:47.837Z,14.00
2022-08-26T19:34:52.233Z,12.00
2022-08-26T19:39:55.069Z,10.30
2022-08-26T19:45:24.726Z,8.50
2022-08-26T19:50:30.706Z,8.20
2022-08-26T19:55:33.868Z,10.60
2022-08-26T20:00:39.779Z,17.70
2022-08-26T20:05:42.629Z,19.30
2022-08-26T20:10:46.810Z,10.70
2022-08-26T20:15:49.534Z,15.50
2022-08-26T20:21:30.771Z,16.80
2022-08-26T20:26:35.518Z,13.10
2022-08-26T20:31:39.414Z,11.90
2022-08-26T20:36:43.189Z,17.90
2022-08-26T20:41:46.073Z,12.00
2022-08-26T20:46:49.181Z,11.00
2022-08-26T20:51:52.739Z,13.40
2022-08-26T20:56:57.056Z,10.80
2022-08-26T21:02:00.657Z,14.30
2022-08-26T21:07:03.564Z,10.00
2022-08-26T21:12:08.105Z,10.20
2022-08-26T21:17:11.008Z,9.40
2022-08-26T21:22:14.348Z,13.90
2022-08-26T21:27:17.686Z,9.80
2022-08-26T21:32:29.244Z,11.80
2022-08-26T21:37:32.353Z,12.10
2022-08-26T21:42:36.176Z,14.10
2022-08-26T21:47:39.724Z,15.00
2022-08-26T21:52:42.597Z,15.50
2022-08-26T21:57:45.808Z,12.30
2022-08-26T22:02:50.453Z,13.80
2022-08-26T22:07:53.776Z,13.10
2022-08-26T22:12:56.773Z,13.10
2022-08-26T22:17:59.782Z,14.30
2022-08-26T22:23:02.785Z,12.90
2022-08-26T22:28:06.502Z,15.00
2022-08-26T22:33:09.923Z,12.40
2022-08-26T22:38:13.722Z,12.40
2022-08-26T22:43:18.559Z,11.20
2022-08-26T22:48:24.174Z,12.70
2022-08-26T22:53:27.388Z,13.00
2022-08-26T22:58:30.981Z,12.80
2022-08-26T23:03:35.322Z,9.50
2022-08-26T23:08:39.676Z,12.40
2022-08-26T23:13:42.987Z,17.30
2022-08-26T23:18:46.093Z,13.60
2022-08-26T23:23:49.071Z,11.10
2022-08-26T23:28:53.436Z,11.20
2022-08-26T23:34:15.184Z,10.60
2022-08-26T23:39:18.187Z,13.90
2022-08-26T23:44:21.436Z,10.00
2022-08-26T23:49:25.625Z,12.90
2022-08-26T23:54:28.540Z,9.80
2022-08-26T23:59:32.005Z,13.60
